Time;durP1;ratioP1;P1;durP2;ratioP2;P2;SDS_P1;SDS_P2;PMS_P1;PMS_P2;Temp;Humidity;BMP_temperature;BMP_pressure;BME280_temperature;BME280_humidity;BME280_pressure;Samples;Min_cycle;Max_cycle;Signal;HPM_P1;HPM_P2
2021/09/04 00:00:06;;;;;;;5.53;4.03;;;;;;;15.51;56.71;101575.47;6182220;23;20190;-66
2021/09/04 00:02:32;;;;;;;6.40;4.23;;;;;;;15.50;56.35;101579.50;6181597;23;20156;-66
2021/09/04 00:04:57;;;;;;;4.37;3.60;;;;;;;15.48;56.54;101570.00;6182092;23;20187;-66
2021/09/04 00:07:27;;;;;;;6.03;4.00;;;;;;;15.43;56.78;101565.72;6182590;23;20224;-66
2021/09/04 00:09:53;;;;;;;5.03;3.60;;;;;;;15.45;56.84;101568.88;6181511;23;20508;-66
2021/09/04 00:12:19;;;;;;;6.83;3.90;;;;;;;15.31;56.47;101552.50;6181163;23;20235;-66
2021/09/04 00:14:45;;;;;;;6.77;3.67;;;;;;;15.28;56.52;101547.81;6182411;23;20160;-66
2021/09/04 00:17:10;;;;;;;6.50;3.97;;;;;;;15.23;56.67;101537.19;6181652;23;20184;-66
2021/09/04 00:19:37;;;;;;;5.33;4.03;;;;;;;15.42;56.90;101580.16;6182175;23;20200;-66
2021/09/04 00:22:03;;;;;;;7.70;3.90;;;;;;;15.36;57.08;101565.94;6179882;23;20608;-66
2021/09/04 00:24:28;;;;;;;5.27;3.80;;;;;;;15.37;57.36;101572.31;6182022;23;20156;-66
2021/09/04 00:26:54;;;;;;;5.07;3.63;;;;;;;14.96;57.34;101516.41;6181947;23;20151;-66
2021/09/04 00:29:19;;;;;;;6.57;3.73;;;;;;;15.39;57.00;101578.25;6182209;23;20555;-66
2021/09/04 00:31:45;;;;;;;8.50;3.67;;;;;;;15.31;57.21;101563.66;6181147;23;20155;-65
2021/09/04 00:34:10;;;;;;;8.10;4.43;;;;;;;15.33;57.38;101568.84;6181746;23;20187;-66
2021/09/04 00:36:35;;;;;;;4.23;3.50;;;;;;;15.30;57.01;101567.69;6181868;23;20654;-66
2021/09/04 00:39:02;;;;;;;6.17;3.70;;;;;;;15.24;56.75;101577.03;6182381;23;20149;-66
2021/09/04 00:41:27;;;;;;;5.50;4.00;;;;;;;15.26;56.91;101580.19;6180773;23;20153;-66
2021/09/04 00:43:53;;;;;;;10.33;4.20;;;;;;;15.23;56.90;101573.47;6182001;23;20435;-66
2021/09/04 00:46:18;;;;;;;5.80;3.80;;;;;;;14.94;57.08;101535.59;6181434;23;20647;-66
2021/09/04 00:48:44;;;;;;;7.30;4.33;;;;;;;15.16;56.99;101584.06;6181877;23;20221;-66
2021/09/04 00:51:09;;;;;;;9.23;4.00;;;;;;;14.79;56.60;101528.81;6182030;23;20607;-66
2021/09/04 00:53:38;;;;;;;6.37;4.37;;;;;;;14.76;56.99;101533.28;6179482;23;20604;-66
2021/09/04 00:56:04;;;;;;;5.57;3.87;;;;;;;14.28;57.32;101471.19;6182203;23;20212;-66
2021/09/04 00:58:30;;;;;;;6.63;4.00;;;;;;;14.97;57.24;101582.94;6181411;23;20153;-66
2021/09/04 01:00:55;;;;;;;5.53;4.30;;;;;;;14.69;57.30;101541.06;6181841;23;20216;-66
2021/09/04 01:03:21;;;;;;;5.80;4.30;;;;;;;14.87;57.34;101589.63;6180579;23;20221;-65
2021/09/04 01:05:47;;;;;;;7.03;4.83;;;;;;;14.84;57.52;101582.09;6182232;23;20149;-66
2021/09/04 01:08:13;;;;;;;7.73;4.60;;;;;;;14.82;57.50;101576.19;6181325;23;20207;-66
2021/09/04 01:10:39;;;;;;;6.70;4.40;;;;;;;14.70;57.66;101564.97;6182058;23;20603;-65
2021/09/04 01:13:05;;;;;;;9.40;4.47;;;;;;;14.51;57.87;101565.84;6180522;23;20247;-66
2021/09/04 01:15:31;;;;;;;8.17;4.80;;;;;;;14.51;57.67;101568.63;6181444;23;20623;-66
2021/09/04 01:18:00;;;;;;;13.40;5.10;;;;;;;14.34;57.63;101579.00;6182300;23;20174;-65
2021/09/04 01:20:27;;;;;;;7.73;4.40;;;;;;;14.31;57.91;101562.34;6180662;23;20691;-66
2021/09/04 01:22:53;;;;;;;7.77;4.10;;;;;;;13.65;58.43;101481.88;6181015;23;20170;-66
2021/09/04 01:25:25;;;;;;;5.10;3.97;;;;;;;14.18;58.73;101578.16;6181365;23;20607;-66
2021/09/04 01:27:52;;;;;;;6.20;4.73;;;;;;;13.97;59.58;101576.66;6182129;23;20153;-66
2021/09/04 01:30:18;;;;;;;7.33;4.43;;;;;;;13.73;59.80;101543.78;6180826;23;20609;-66
2021/09/04 01:32:44;;;;;;;5.63;4.50;;;;;;;13.94;59.92;101558.00;6180877;23;20155;-66
2021/09/04 01:35:12;;;;;;;6.60;4.30;;;;;;;13.69;59.97;101518.00;6181191;23;20657;-66
2021/09/04 01:37:38;;;;;;;7.83;4.53;;;;;;;13.84;60.90;101564.59;6181788;23;20467;-66
2021/09/04 01:40:12;;;;;;;7.07;5.00;;;;;;;13.88;60.60;101553.41;6181274;23;20497;-65
2021/09/04 01:42:38;;;;;;;7.13;4.70;;;;;;;13.93;60.93;101552.88;6180710;23;20242;-66
2021/09/04 01:45:04;;;;;;;7.03;4.80;;;;;;;13.67;60.48;101501.72;6181540;23;20152;-66
2021/09/04 01:47:30;;;;;;;7.07;4.30;;;;;;;14.09;60.64;101550.13;6180928;23;20199;-65
2021/09/04 01:49:56;;;;;;;7.37;4.40;;;;;;;13.87;60.03;101496.06;6181602;23;20629;-66
2021/09/04 01:52:21;;;;;;;8.23;4.53;;;;;;;14.28;59.69;101538.91;6180489;23;20417;-65
2021/09/04 01:54:48;;;;;;;6.03;4.40;;;;;;;14.33;59.73;101538.38;6155146;23;20495;-65
2021/09/04 01:57:14;;;;;;;13.23;5.00;;;;;;;14.37;59.37;101549.44;6181151;23;20639;-65
2021/09/04 01:59:39;;;;;;;8.27;4.80;;;;;;;14.08;59.73;101506.75;6181462;23;20151;-66
2021/09/04 02:02:06;;;;;;;7.93;4.37;;;;;;;14.19;59.61;101538.72;6180687;23;20152;-65
2021/09/04 02:04:32;;;;;;;8.97;4.60;;;;;;;14.29;59.24;101542.50;6181417;23;20250;-66
2021/09/04 02:06:57;;;;;;;12.47;5.03;;;;;;;14.06;59.60;101534.25;6181366;23;20580;-65
2021/09/04 02:09:23;;;;;;;7.80;4.80;;;;;;;14.19;59.34;101524.78;6181244;23;20163;-65
2021/09/04 02:11:48;;;;;;;10.17;4.30;;;;;;;13.89;59.23;101457.44;6181274;23;20158;-65
2021/09/04 02:14:13;;;;;;;10.33;4.80;;;;;;;14.38;58.97;101523.13;6180284;23;20155;-66
2021/09/04 02:16:39;;;;;;;7.80;4.90;;;;;;;14.41;59.37;101527.84;6181619;23;20181;-66
2021/09/04 02:19:04;;;;;;;12.13;5.37;;;;;;;14.37;59.32;101516.78;6181307;23;20171;-65
2021/09/04 02:21:30;;;;;;;7.47;4.50;;;;;;;14.52;59.17;101529.16;6180454;23;20161;-65
2021/09/04 02:23:55;;;;;;;6.27;4.97;;;;;;;14.57;58.93;101528.63;6181032;23;20215;-66
2021/09/04 02:26:21;;;;;;;8.43;4.53;;;;;;;14.54;59.21;101517.53;6181480;23;20223;-65
2021/09/04 02:28:46;;;;;;;9.70;4.47;;;;;;;14.56;59.10;101524.25;6180899;23;20153;-66
2021/09/04 02:31:12;;;;;;;7.37;4.80;;;;;;;14.56;59.12;101529.06;6181114;23;20624;-66
2021/09/04 02:33:37;;;;;;;8.40;4.90;;;;;;;14.53;59.06;101524.34;6182248;23;20150;-65
2021/09/04 02:36:03;;;;;;;12.53;5.10;;;;;;;14.50;58.75;101516.88;6183634;23;20159;-66
2021/09/04 02:38:28;;;;;;;8.67;4.70;;;;;;;14.38;57.73;101517.56;6183034;23;20159;-65
2021/09/04 02:40:54;;;;;;;9.83;5.10;;;;;;;14.26;58.66;101521.06;6183141;23;20157;-66
2021/09/04 02:43:19;;;;;;;7.97;4.90;;;;;;;14.14;59.44;101514.13;6181953;23;20157;-65
2021/09/04 02:45:44;;;;;;;9.17;5.17;;;;;;;13.99;59.93;101510.13;6182888;23;20283;-66
2021/09/04 02:48:10;;;;;;;7.57;5.20;;;;;;;13.90;60.81;101509.94;6182772;23;20141;-66
2021/09/04 02:50:35;;;;;;;9.37;5.13;;;;;;;13.85;61.07;101510.47;6182707;23;20163;-65
2021/09/04 02:53:04;;;;;;;6.50;4.83;;;;;;;13.52;60.88;101455.13;6182457;23;20153;-65
2021/09/04 02:55:29;;;;;;;7.17;5.00;;;;;;;13.82;60.31;101504.94;6182762;23;20559;-65
2021/09/04 02:57:55;;;;;;;6.20;4.77;;;;;;;13.63;60.26;101475.94;6183154;23;20176;-65
2021/09/04 03:00:20;;;;;;;9.77;4.77;;;;;;;13.63;60.13;101470.38;6182224;23;20241;-65
2021/09/04 03:02:48;;;;;;;9.20;4.93;;;;;;;13.21;59.82;101398.94;6182107;23;20151;-66
2021/09/04 03:05:13;;;;;;;7.97;4.90;;;;;;;13.54;60.13;101463.84;6182832;23;20154;-65
2021/09/04 03:07:39;;;;;;;7.13;4.70;;;;;;;13.91;60.16;101507.94;6183149;23;20673;-65
2021/09/04 03:10:05;;;;;;;9.87;4.87;;;;;;;14.00;60.02;101517.28;6182667;23;20219;-65
2021/09/04 03:12:30;;;;;;;10.23;5.30;;;;;;;14.03;60.21;101519.19;6182626;23;20233;-65
2021/09/04 03:14:56;;;;;;;6.83;5.07;;;;;;;14.08;60.18;101518.66;6182151;23;20267;-65
2021/09/04 03:17:21;;;;;;;8.73;4.80;;;;;;;14.10;60.07;101515.44;6182827;23;20567;-65
2021/09/04 03:19:47;;;;;;;9.07;4.80;;;;;;;13.88;60.16;101492.88;6182540;23;20154;-65
2021/09/04 03:22:12;;;;;;;8.97;5.10;;;;;;;14.09;60.04;101517.44;6182078;23;20239;-65
2021/09/04 03:24:38;;;;;;;13.73;5.97;;;;;;;13.95;60.11;101515.00;6183172;23;20152;-65
2021/09/04 03:27:04;;;;;;;16.87;5.57;;;;;;;13.55;60.07;101455.06;6182676;23;20149;-66
2021/09/04 03:29:30;;;;;;;13.83;5.63;;;;;;;13.47;59.73;101455.66;6182400;23;20154;-65
2021/09/04 03:31:55;;;;;;;8.30;5.00;;;;;;;13.76;59.90;101513.06;6181807;23;20150;-65
2021/09/04 03:34:20;;;;;;;10.60;4.87;;;;;;;13.45;60.27;101489.50;6182343;23;20153;-66
2021/09/04 03:36:46;;;;;;;11.30;4.63;;;;;;;13.56;60.48;101529.03;6182462;23;20184;-65
2021/09/04 03:39:12;;;;;;;9.30;4.77;;;;;;;13.63;60.32;101534.44;6182756;23;20219;-65
2021/09/04 03:41:37;;;;;;;7.27;4.50;;;;;;;13.53;60.82;101523.53;6179986;23;20207;-65
2021/09/04 03:44:03;;;;;;;9.73;5.03;;;;;;;13.08;60.90;101462.06;6182031;23;20160;-65
2021/09/04 03:46:28;;;;;;;7.30;4.40;;;;;;;13.50;60.88;101519.59;6181687;23;20652;-65
2021/09/04 03:48:56;;;;;;;7.83;4.80;;;;;;;13.21;60.64;101467.75;6181199;23;20173;-65
2021/09/04 03:51:21;;;;;;;7.83;4.93;;;;;;;13.45;60.89;101519.31;6181712;23;20623;-66
2021/09/04 03:53:47;;;;;;;8.30;4.83;;;;;;;13.13;60.90;101489.38;6181693;23;20149;-65
2021/09/04 03:56:12;;;;;;;6.00;4.40;;;;;;;13.47;60.67;101541.97;6182250;23;20620;-66
2021/09/04 03:58:38;;;;;;;6.73;4.70;;;;;;;13.52;60.67;101533.88;6182224;23;20156;-65
2021/09/04 04:01:03;;;;;;;6.27;4.03;;;;;;;13.55;60.56;101546.94;6182572;23;20166;-65
2021/09/04 04:03:29;;;;;;;6.53;4.43;;;;;;;13.41;60.76;101516.63;6179536;23;20156;-65
2021/09/04 04:05:55;;;;;;;6.23;4.23;;;;;;;13.29;60.39;101503.34;6181249;23;20161;-65
2021/09/04 04:08:20;;;;;;;7.17;4.20;;;;;;;13.60;60.52;101537.28;6181795;23;20184;-65
2021/09/04 04:10:46;;;;;;;7.43;4.43;;;;;;;13.51;60.31;101548.22;6182375;23;20149;-65
2021/09/04 04:13:11;;;;;;;9.60;5.20;;;;;;;13.40;60.68;101550.44;6181117;23;20156;-66
2021/09/04 04:15:37;;;;;;;11.10;4.60;;;;;;;12.79;60.55;101457.44;6182418;23;20163;-66
2021/09/04 04:18:02;;;;;;;11.57;5.43;;;;;;;13.40;60.66;101547.66;6182059;23;20184;-65
2021/09/04 04:20:27;;;;;;;7.40;4.90;;;;;;;13.30;60.82;101538.31;6181733;23;20153;-66
2021/09/04 04:22:53;;;;;;;10.70;5.60;;;;;;;13.54;60.97;101562.09;6181278;23;20554;-65
2021/09/04 04:25:18;;;;;;;9.70;5.43;;;;;;;13.15;60.45;101486.94;6181866;23;20149;-65
2021/09/04 04:27:44;;;;;;;10.30;5.20;;;;;;;13.73;60.31;101558.47;6182494;23;20507;-65
2021/09/04 04:30:10;;;;;;;7.83;5.07;;;;;;;13.32;59.91;101494.13;6181544;23;20159;-65
2021/09/04 04:32:36;;;;;;;7.80;4.53;;;;;;;13.54;59.63;101511.16;6181360;23;20149;-66
2021/09/04 04:35:01;;;;;;;9.10;4.77;;;;;;;13.99;59.80;101567.88;6181804;23;20159;-65
2021/09/04 04:37:27;;;;;;;20.80;7.70;;;;;;;14.02;59.53;101569.78;6180533;23;20674;-66
2021/09/04 04:39:52;;;;;;;8.73;4.50;;;;;;;14.02;59.62;101570.56;6181555;23;20596;-66
2021/09/04 04:42:17;;;;;;;9.93;5.07;;;;;;;14.08;59.49;101573.63;6179814;23;20189;-66
2021/09/04 04:44:43;;;;;;;13.93;6.10;;;;;;;14.18;59.41;101564.22;6181530;23;20149;-66
2021/09/04 04:47:09;;;;;;;8.27;5.43;;;;;;;14.06;59.34;101532.25;6181897;23;20228;-65
2021/09/04 04:49:34;;;;;;;9.00;5.23;;;;;;;14.42;58.96;101563.66;6181298;23;20166;-66
2021/09/04 04:52:00;;;;;;;8.77;4.70;;;;;;;14.50;58.72;101561.50;6182171;23;20185;-66
2021/09/04 04:54:26;;;;;;;9.17;4.53;;;;;;;14.62;58.72;101561.56;6181201;23;20149;-65
2021/09/04 04:56:52;;;;;;;7.00;4.33;;;;;;;14.71;58.92;101563.72;6181433;23;20182;-66
2021/09/04 04:59:18;;;;;;;9.27;4.80;;;;;;;14.88;58.26;101560.47;6181744;23;20158;-66
2021/09/04 05:01:43;;;;;;;9.73;4.77;;;;;;;15.00;58.10;101562.53;6181405;23;20157;-66
2021/09/04 05:04:09;;;;;;;6.63;4.17;;;;;;;14.76;58.39;101515.78;6181696;23;20493;-66
2021/09/04 05:06:34;;;;;;;12.33;5.03;;;;;;;15.22;58.02;101563.50;6182029;23;20212;-66
2021/09/04 05:09:00;;;;;;;11.47;5.10;;;;;;;14.94;57.79;101516.06;6182159;23;20238;-66
2021/09/04 05:11:26;;;;;;;7.50;4.83;;;;;;;15.23;57.97;101561.50;6180796;23;20149;-65
2021/09/04 05:13:52;;;;;;;9.17;5.03;;;;;;;15.28;57.57;101570.16;6181854;23;20159;-66
2021/09/04 05:16:17;;;;;;;6.03;4.77;;;;;;;15.36;57.50;101570.75;6181599;23;20177;-66
2021/09/04 05:18:43;;;;;;;9.93;4.90;;;;;;;15.21;57.12;101524.88;6182131;23;20600;-66
2021/09/04 05:21:08;;;;;;;11.90;5.23;;;;;;;15.56;57.19;101576.94;6180846;23;20201;-66
2021/09/04 05:23:34;;;;;;;11.53;6.07;;;;;;;15.50;56.97;101573.13;6181170;23;20571;-66
2021/09/04 05:25:59;;;;;;;15.03;6.27;;;;;;;15.49;56.84;101574.34;6181470;23;20163;-66
2021/09/04 05:28:25;;;;;;;13.93;6.50;;;;;;;15.34;56.82;101546.06;6181275;23;20160;-65
2021/09/04 05:30:50;;;;;;;12.80;5.87;;;;;;;15.53;57.10;101575.81;6181578;23;20149;-66
2021/09/04 05:33:16;;;;;;;15.17;6.23;;;;;;;14.91;57.02;101461.91;6180310;23;20157;-66
2021/09/04 05:35:42;;;;;;;12.53;6.20;;;;;;;15.75;57.20;101584.34;6181817;23;20626;-66
2021/09/04 05:38:08;;;;;;;9.93;5.80;;;;;;;15.84;57.23;101582.47;6181250;23;20184;-66
2021/09/04 05:40:34;;;;;;;12.27;6.00;;;;;;;15.98;56.96;101590.44;6181536;23;20156;-66
2021/09/04 05:42:59;;;;;;;11.80;5.50;;;;;;;15.88;57.02;101599.91;6180539;23;20183;-66
2021/09/04 05:45:25;;;;;;;8.30;5.73;;;;;;;15.91;57.28;101589.84;6181347;23;20191;-65
2021/09/04 05:47:50;;;;;;;13.20;5.93;;;;;;;15.95;56.91;101577.34;6181320;23;20152;-66
2021/09/04 05:50:16;;;;;;;12.00;5.53;;;;;;;15.90;56.96;101547.16;6181148;23;20212;-66
2021/09/04 05:52:41;;;;;;;12.53;5.73;;;;;;;16.35;57.03;101605.66;6180652;23;20607;-66
2021/09/04 05:55:07;;;;;;;10.33;5.63;;;;;;;16.35;56.80;101572.84;6181744;23;20149;-66
2021/09/04 05:57:32;;;;;;;10.03;5.23;;;;;;;16.62;57.19;101599.63;6181408;23;20181;-66
2021/09/04 05:59:58;;;;;;;8.83;5.30;;;;;;;16.76;56.89;101600.69;6181104;23;20163;-66
2021/09/04 06:02:23;;;;;;;11.00;5.03;;;;;;;16.95;56.74;101598.88;6180686;23;20614;-66
2021/09/04 06:04:49;;;;;;;9.73;5.33;;;;;;;17.01;57.49;101592.22;6179400;23;20159;-65
2021/09/04 06:07:14;;;;;;;11.20;5.33;;;;;;;17.18;57.52;101593.66;6182353;23;20180;-66
2021/09/04 06:09:40;;;;;;;10.00;5.63;;;;;;;17.06;56.76;101535.63;6156512;23;20160;-66
2021/09/04 06:12:05;;;;;;;11.33;5.00;;;;;;;17.59;56.52;101592.56;6183293;23;20152;-65
2021/09/04 06:14:31;;;;;;;10.37;4.73;;;;;;;17.58;53.76;101588.19;6182539;23;20160;-66
2021/09/04 06:16:56;;;;;;;10.00;4.97;;;;;;;17.75;54.37;101588.78;6183613;23;20205;-66
2021/09/04 06:19:22;;;;;;;12.33;5.00;;;;;;;17.93;53.60;101589.66;6182750;23;20608;-66
2021/09/04 06:21:47;;;;;;;9.43;4.83;;;;;;;18.11;53.77;101581.31;6182933;23;20153;-66
2021/09/04 06:24:13;;;;;;;7.20;4.57;;;;;;;18.31;52.59;101584.53;6182780;23;20153;-66
2021/09/04 06:26:38;;;;;;;6.90;4.50;;;;;;;18.45;52.05;101578.38;6183916;23;20149;-66
2021/09/04 06:29:04;;;;;;;6.80;4.73;;;;;;;18.71;52.54;101590.91;6183132;23;20158;-66
2021/09/04 06:31:29;;;;;;;11.30;5.23;;;;;;;18.94;52.14;101583.91;6182643;23;20568;-66
2021/09/04 06:33:55;;;;;;;10.67;4.90;;;;;;;19.05;51.06;101561.75;6182645;23;20161;-66
2021/09/04 06:36:20;;;;;;;9.40;4.70;;;;;;;19.41;49.20;101584.25;6181041;23;20162;-66
2021/09/04 06:38:46;;;;;;;9.23;4.97;;;;;;;19.45;49.43;101568.78;6183500;23;20184;-66
2021/09/04 06:41:11;;;;;;;10.30;4.97;;;;;;;19.84;47.54;101586.66;6182564;23;20162;-66
2021/09/04 06:43:37;;;;;;;6.67;4.80;;;;;;;20.12;47.22;101591.00;6182564;23;20157;-66
2021/09/04 06:46:03;;;;;;;7.30;5.00;;;;;;;20.26;46.94;101591.09;6182700;23;20546;-66
2021/09/04 06:48:28;;;;;;;9.70;5.17;;;;;;;20.48;46.71;101588.81;6183149;23;20141;-66
2021/09/04 06:50:54;;;;;;;8.23;4.80;;;;;;;20.37;44.87;101582.13;6182322;23;20674;-66
2021/09/04 06:53:20;;;;;;;12.27;4.77;;;;;;;20.34;44.86;101589.50;6182347;23;20183;-66
2021/09/04 06:55:46;;;;;;;8.37;5.00;;;;;;;20.44;45.31;101585.38;6183571;23;20413;-66
2021/09/04 06:58:11;;;;;;;8.43;4.93;;;;;;;20.51;44.02;101585.03;6183043;23;20181;-66
2021/09/04 07:00:36;;;;;;;7.83;4.50;;;;;;;20.69;42.35;101603.84;6183152;23;20604;-66
2021/09/04 07:03:02;;;;;;;6.73;5.30;;;;;;;20.59;43.41;101600.31;6182367;23;20153;-66
2021/09/04 07:05:27;;;;;;;7.93;4.60;;;;;;;20.89;43.29;101607.69;6182432;23;20181;-66
2021/09/04 07:07:53;;;;;;;8.03;4.73;;;;;;;21.07;43.66;101603.94;6182747;23;20145;-66
2021/09/04 07:10:18;;;;;;;8.23;4.60;;;;;;;21.27;43.20;101604.88;6182687;23;20149;-66
2021/09/04 07:12:44;;;;;;;6.90;4.73;;;;;;;21.38;43.62;101588.16;6181957;23;20501;-66
2021/09/04 07:15:10;;;;;;;8.50;4.70;;;;;;;21.50;43.59;101597.63;6182817;23;20224;-66
2021/09/04 07:17:35;;;;;;;7.20;4.80;;;;;;;21.11;43.74;101554.59;6182461;23;20522;-66
2021/09/04 07:20:01;;;;;;;7.37;4.87;;;;;;;20.80;44.57;101596.44;6182169;23;20211;-66
2021/09/04 07:22:26;;;;;;;7.50;5.00;;;;;;;20.39;45.09;101526.91;6181441;23;20157;-66
2021/09/04 07:24:51;;;;;;;8.03;4.80;;;;;;;21.01;44.29;101589.75;6182873;23;20152;-66
2021/09/04 07:27:17;;;;;;;8.10;4.80;;;;;;;20.99;44.38;101580.97;6182560;23;20146;-66
2021/09/04 07:29:42;;;;;;;7.50;4.27;;;;;;;21.06;44.99;101583.44;6182593;23;20630;-67
2021/09/04 07:32:08;;;;;;;9.23;5.03;;;;;;;20.83;44.84;101587.00;6181731;23;20215;-66
2021/09/04 07:34:33;;;;;;;9.50;5.30;;;;;;;21.08;43.50;101599.88;6182828;23;20160;-66
2021/09/04 07:36:59;;;;;;;8.43;4.77;;;;;;;21.14;43.67;101593.06;6182379;23;20180;-66
2021/09/04 07:39:24;;;;;;;10.37;5.13;;;;;;;21.14;43.89;101595.88;6180347;23;20160;-66
2021/09/04 07:41:50;;;;;;;14.33;5.37;;;;;;;21.00;42.21;101593.03;6182201;23;20188;-66
2021/09/04 07:44:15;;;;;;;10.57;5.23;;;;;;;20.93;42.83;101602.63;6181137;23;20153;-66
2021/09/04 07:46:41;;;;;;;9.53;5.37;;;;;;;21.31;42.59;101602.66;6181240;23;20196;-67
2021/09/04 07:49:06;;;;;;;7.00;4.43;;;;;;;21.07;42.87;101570.91;6179260;23;20164;-66
2021/09/04 07:51:32;;;;;;;9.10;5.33;;;;;;;21.24;41.96;101596.59;6171149;23;20160;-66
2021/09/04 07:53:57;;;;;;;10.37;5.20;;;;;;;21.19;42.35;101575.47;6174882;23;20199;-66
2021/09/04 07:56:22;;;;;;;9.80;4.73;;;;;;;21.12;42.68;101566.63;6178254;23;20219;-66
2021/09/04 07:58:48;;;;;;;8.07;5.30;;;;;;;21.25;42.91;101593.31;6178166;23;20179;-67
2021/09/04 08:01:13;;;;;;;8.47;4.50;;;;;;;21.45;42.21;101603.94;6177912;23;20157;-66
2021/09/04 08:03:39;;;;;;;7.50;4.73;;;;;;;21.33;42.04;101608.56;6176541;23;20157;-67
2021/09/04 08:06:05;;;;;;;10.60;5.20;;;;;;;21.26;42.59;101608.16;6179757;23;20618;-67
2021/09/04 08:08:31;;;;;;;7.27;4.67;;;;;;;21.54;42.30;101596.16;6179045;23;20486;-67
2021/09/04 08:10:57;;;;;;;8.60;5.30;;;;;;;21.44;41.73;101608.03;6179524;23;20176;-66
2021/09/04 08:13:24;;;;;;;6.63;4.70;;;;;;;21.42;42.01;101597.22;6178664;23;20180;-66
2021/09/04 08:15:50;;;;;;;8.80;4.80;;;;;;;21.93;41.44;101617.44;6179689;23;20163;-66
2021/09/04 08:18:16;;;;;;;11.17;4.97;;;;;;;22.03;41.66;101613.25;6180245;23;20181;-67
2021/09/04 08:20:42;;;;;;;8.30;5.03;;;;;;;22.10;41.12;101614.91;6179563;23;20151;-67
2021/09/04 08:23:08;;;;;;;8.40;5.40;;;;;;;21.56;41.10;101568.28;6178824;23;20149;-67
2021/09/04 08:25:35;;;;;;;8.23;5.13;;;;;;;21.91;40.75;101607.91;6179187;23;20662;-67
2021/09/04 08:28:00;;;;;;;8.30;5.00;;;;;;;21.81;41.66;101607.19;6177916;23;20569;-67
2021/09/04 08:30:26;;;;;;;8.67;4.77;;;;;;;21.87;41.64;101585.53;6180166;23;20712;-67
2021/09/04 08:32:51;;;;;;;8.17;4.70;;;;;;;22.10;40.30;101610.00;6178899;23;20164;-67
2021/09/04 08:35:17;;;;;;;8.93;5.13;;;;;;;21.91;40.91;101596.59;6180246;23;20544;-67
2021/09/04 08:37:42;;;;;;;7.70;5.40;;;;;;;21.49;40.72;101531.22;6180783;23;20188;-67
2021/09/04 08:40:10;;;;;;;8.77;5.47;;;;;;;21.82;41.02;101594.66;6180416;23;20599;-67
2021/09/04 08:42:36;;;;;;;11.67;5.50;;;;;;;21.81;40.96;101603.63;6179289;23;20185;-67
2021/09/04 08:45:02;;;;;;;11.83;5.50;;;;;;;21.33;41.49;101518.34;6180657;23;20521;-67
2021/09/04 08:47:29;;;;;;;11.37;5.20;;;;;;;21.90;41.33;101595.81;6153900;23;20291;-67
2021/09/04 08:49:55;;;;;;;9.37;5.27;;;;;;;21.93;41.66;101594.84;6154537;23;20157;-67
2021/09/04 08:52:20;;;;;;;7.47;5.03;;;;;;;21.96;41.42;101587.47;6179588;23;20161;-67
2021/09/04 08:54:49;;;;;;;8.53;5.20;;;;;;;22.17;41.38;101586.25;6180187;23;20149;-67
2021/09/04 08:57:15;;;;;;;8.13;5.00;;;;;;;22.06;41.73;101594.56;6179886;23;20716;-69
2021/09/04 08:59:40;;;;;;;10.87;5.47;;;;;;;21.94;41.19;101542.78;6180178;23;20157;-67
2021/09/04 09:02:12;;;;;;;8.93;5.33;;;;;;;22.14;40.14;101568.25;6179290;23;20232;-67
2021/09/04 09:04:39;;;;;;;5.60;4.87;;;;;;;22.19;39.82;101544.97;6178529;23;20167;-67
2021/09/04 09:07:05;;;;;;;12.10;5.17;;;;;;;22.45;39.69;101539.47;6179573;23;20615;-67
2021/09/04 09:09:30;;;;;;;9.50;5.27;;;;;;;22.79;39.22;101576.19;6180510;23;20151;-67
2021/09/04 09:11:57;;;;;;;10.67;5.20;;;;;;;22.71;40.28;101552.41;6179469;23;20153;-67
2021/09/04 09:14:25;;;;;;;8.17;4.63;;;;;;;23.16;39.45;101567.88;6179220;23;20149;-67
2021/09/04 09:16:55;;;;;;;11.33;5.53;;;;;;;23.34;39.05;101567.59;6180218;23;20180;-67
2021/09/04 09:19:25;;;;;;;9.20;4.97;;;;;;;23.40;39.00;101563.56;6180047;23;20149;-67
2021/09/04 09:21:54;;;;;;;8.50;5.07;;;;;;;23.38;37.82;101556.84;6180244;23;20588;-67
2021/09/04 09:24:20;;;;;;;6.67;4.63;;;;;;;23.63;38.10;101578.69;6177827;23;20218;-67
2021/09/04 09:26:49;;;;;;;8.27;5.20;;;;;;;23.55;36.38;101569.09;6180245;23;20234;-67
2021/09/04 09:29:19;;;;;;;11.30;7.10;;;;;;;23.53;36.98;101571.66;6180096;23;20149;-67
2021/09/04 09:31:45;;;;;;;11.60;7.60;;;;;;;23.27;37.36;101545.41;6179791;23;20250;-67
2021/09/04 09:34:12;;;;;;;8.63;5.30;;;;;;;23.57;37.36;101555.22;6179436;23;20611;-67
2021/09/04 09:36:54;;;;;;;8.70;6.07;;;;;;;23.90;37.38;101558.41;6180562;23;20262;-67
2021/09/04 09:39:28;;;;;;;10.77;5.50;;;;;;;24.01;38.08;101550.75;6178823;23;20397;-67
2021/09/04 09:41:55;;;;;;;7.53;5.13;;;;;;;24.21;37.15;101547.81;6152359;23;20257;-67
2021/09/04 09:44:23;;;;;;;9.17;6.77;;;;;;;24.37;36.33;101549.22;6153114;23;20161;-67
2021/09/04 09:46:53;;;;;;;7.00;4.50;;;;;;;24.34;35.59;101538.88;6179514;23;20203;-67
2021/09/04 09:49:37;;;;;;;9.30;4.63;;;;;;;24.36;36.25;101534.25;6179819;23;20591;-67
2021/09/04 09:52:09;;;;;;;7.57;5.00;;;;;;;24.62;35.35;101517.19;6177965;23;20149;-67
2021/09/04 09:54:35;;;;;;;14.70;8.10;;;;;;;24.58;34.43;101476.94;6179189;23;20153;-67
2021/09/04 09:57:04;;;;;;;12.90;9.30;;;;;;;25.15;33.88;101519.94;6179170;23;20184;-67
2021/09/04 09:59:31;;;;;;;16.23;14.10;;;;;;;25.22;33.69;101508.09;6178168;23;20149;-67
2021/09/04 10:02:15;;;;;;;21.23;17.00;;;;;;;25.01;33.84;101501.88;6179128;23;20610;-67
2021/09/04 10:04:45;;;;;;;19.93;15.33;;;;;;;25.27;33.46;101513.03;6178943;23;20498;-67
2021/09/04 10:07:10;;;;;;;25.97;20.07;;;;;;;24.72;34.09;101453.31;6180648;23;20146;-67
2021/09/04 10:09:39;;;;;;;21.17;18.40;;;;;;;25.12;33.88;101504.72;6179177;23;20576;-67
2021/09/04 10:12:04;;;;;;;20.40;15.87;;;;;;;25.17;33.65;101497.53;6179718;23;20149;-67
2021/09/04 10:14:30;;;;;;;22.97;18.40;;;;;;;25.27;34.19;101491.13;6179472;23;20235;-67
2021/09/04 10:16:59;;;;;;;17.37;13.97;;;;;;;25.27;34.07;101499.63;6180403;23;20188;-67
2021/09/04 10:19:30;;;;;;;17.70;13.10;;;;;;;25.58;33.81;101490.88;6179346;23;20153;-67
2021/09/04 10:22:01;;;;;;;19.80;11.03;;;;;;;25.94;33.20;101503.31;6179345;23;20432;-67
2021/09/04 10:24:42;;;;;;;17.73;10.87;;;;;;;25.96;32.66;101500.72;6180175;23;20224;-67
2021/09/04 10:27:08;;;;;;;14.37;10.27;;;;;;;26.16;33.08;101498.34;6179953;23;20149;-67
2021/09/04 10:29:44;;;;;;;15.77;8.60;;;;;;;26.26;31.81;101498.84;6179629;23;20160;-67
2021/09/04 10:32:18;;;;;;;12.63;8.97;;;;;;;26.49;31.74;101503.19;6178724;23;20236;-67
2021/09/04 10:34:45;;;;;;;12.63;8.20;;;;;;;26.77;31.19;101498.19;6153579;23;20498;-67
2021/09/04 10:37:18;;;;;;;14.03;7.83;;;;;;;26.88;31.09;101492.44;6179770;23;20231;-67
2021/09/04 10:39:53;;;;;;;10.68;6.90;;;;;;;27.05;30.28;101493.13;6180621;23;20176;-67
2021/09/04 10:42:24;;;;;;;16.60;8.23;;;;;;;26.85;31.38;101494.28;6178249;23;20223;-67
2021/09/04 10:44:56;;;;;;;9.45;7.82;;;;;;;26.99;31.37;101498.06;6179904;23;20624;-67
2021/09/04 10:47:21;;;;;;;12.33;9.17;;;;;;;26.99;30.20;101500.91;6180220;23;20247;-67
2021/09/04 10:49:52;;;;;;;12.25;9.82;;;;;;;26.95;30.23;101489.03;6179887;23;20607;-67
2021/09/04 10:52:43;;;;;;;14.67;8.83;;;;;;;27.02;30.46;101480.72;6178277;23;20212;-67
2021/09/04 10:55:17;;;;;;;13.43;6.88;;;;;;;27.03;29.12;101473.72;6181558;23;20192;-67
2021/09/04 10:57:45;;;;;;;8.75;6.07;;;;;;;27.14;29.54;101467.22;6182182;23;20665;-67
2021/09/04 11:00:21;;;;;;;9.52;5.38;;;;;;;27.53;28.87;101470.59;6181420;23;20160;-67
2021/09/04 11:03:04;;;;;;;7.00;5.75;;;;;;;27.70;28.79;101468.34;6179304;23;20212;-67
2021/09/04 11:05:52;;;;;;;10.43;6.30;;;;;;;27.74;28.67;101463.16;6155649;23;20156;-67
2021/09/04 11:08:20;;;;;;;8.38;6.05;;;;;;;28.11;28.46;101460.47;6181348;23;20148;-67
2021/09/04 11:10:47;;;;;;;8.15;5.43;;;;;;;28.23;27.74;101464.72;6181874;23;20192;-67
2021/09/04 11:13:13;;;;;;;6.03;4.50;;;;;;;28.40;27.08;101459.66;6179564;23;20160;-67
2021/09/04 11:15:43;;;;;;;7.32;4.70;;;;;;;28.45;26.96;101464.53;6181783;23;20154;-67
2021/09/04 11:18:11;;;;;;;8.18;4.43;;;;;;;28.40;26.73;101446.16;6181362;23;20177;-67